createdAt,value
2023-03-22T00:00:22.698Z,1002.16
2023-03-22T00:01:22.702Z,1002.16
2023-03-22T00:02:22.686Z,1002.16
2023-03-22T00:03:22.717Z,1002.15
2023-03-22T00:04:22.624Z,1002.15
2023-03-22T00:05:22.650Z,1002.13
2023-03-22T00:06:22.627Z,1002.13
2023-03-22T00:07:22.614Z,1002.12
2023-03-22T00:08:22.569Z,1002.13
2023-03-22T00:09:22.579Z,1002.10
2023-03-22T00:10:22.563Z,1002.09
2023-03-22T00:11:22.562Z,1002.10
2023-03-22T00:12:22.549Z,1002.07
2023-03-22T00:13:22.527Z,1002.06
2023-03-22T00:14:22.504Z,1002.07
2023-03-22T00:15:22.537Z,1002.07
2023-03-22T00:16:22.534Z,1002.06
2023-03-22T00:17:22.501Z,1002.06
2023-03-22T00:18:22.470Z,1002.04
2023-03-22T00:19:22.483Z,1002.02
2023-03-22T00:20:22.434Z,1002.02
2023-03-22T00:21:22.454Z,1002.00
2023-03-22T00:22:22.472Z,1001.99
2023-03-22T00:23:22.431Z,1001.97
2023-03-22T00:24:22.421Z,1001.94
2023-03-22T00:25:22.420Z,1001.93
2023-03-22T00:26:22.413Z,1001.92
2023-03-22T00:27:22.374Z,1001.91
2023-03-22T00:28:22.605Z,1001.92
2023-03-22T00:29:22.359Z,1001.88
2023-03-22T00:30:22.340Z,1001.87
2023-03-22T00:31:22.413Z,1001.89
2023-03-22T00:32:22.303Z,1001.88
2023-03-22T00:33:22.312Z,1001.89
2023-03-22T00:34:22.306Z,1001.90
2023-03-22T00:35:22.339Z,1001.89
2023-03-22T00:36:22.276Z,1001.87
2023-03-22T00:37:22.274Z,1001.86
2023-03-22T00:38:32.543Z,1001.87
2023-03-22T00:39:22.279Z,1001.86
2023-03-22T00:40:22.245Z,1001.86
2023-03-22T00:41:22.222Z,1001.85
2023-03-22T00:42:22.235Z,1001.83
2023-03-22T00:43:22.221Z,1001.84
2023-03-22T00:44:22.196Z,1001.82
2023-03-22T00:45:22.209Z,1001.85
2023-03-22T00:46:22.250Z,1001.85
2023-03-22T00:47:22.184Z,1001.84
2023-03-22T00:48:22.184Z,1001.84
2023-03-22T00:49:22.139Z,1001.83
2023-03-22T00:50:22.114Z,1001.82
2023-03-22T00:51:22.126Z,1001.81
2023-03-22T00:52:22.094Z,1001.81
2023-03-22T00:53:22.094Z,1001.81
2023-03-22T00:54:22.113Z,1001.80
2023-03-22T00:55:22.070Z,1001.79
2023-03-22T00:56:22.057Z,1001.77
2023-03-22T00:57:22.097Z,1001.74
2023-03-22T00:58:22.039Z,1001.73
2023-03-22T00:59:22.035Z,1001.73
2023-03-22T01:00:22.048Z,1001.72
2023-03-22T01:01:22.093Z,1001.70
2023-03-22T01:02:21.993Z,1001.65
2023-03-22T01:03:22.166Z,1001.64
2023-03-22T01:04:21.988Z,1001.64
2023-03-22T01:05:22.108Z,1001.63
2023-03-22T01:06:21.960Z,1001.62
2023-03-22T01:07:21.971Z,1001.63
2023-03-22T01:08:21.921Z,1001.61
2023-03-22T01:09:21.945Z,1001.59
2023-03-22T01:10:21.889Z,1001.60
2023-03-22T01:11:21.935Z,1001.59
2023-03-22T01:12:21.906Z,1001.59
2023-03-22T01:13:21.916Z,1001.59
2023-03-22T01:14:21.859Z,1001.59
2023-03-22T01:15:21.865Z,1001.61
2023-03-22T01:16:21.928Z,1001.61
2023-03-22T01:17:21.847Z,1001.60
2023-03-22T01:18:21.817Z,1001.59
2023-03-22T01:19:21.850Z,1001.59
2023-03-22T01:20:21.785Z,1001.57
2023-03-22T01:21:21.795Z,1001.57
2023-03-22T01:22:21.773Z,1001.56
2023-03-22T01:23:21.779Z,1001.57
2023-03-22T01:24:21.740Z,1001.57
2023-03-22T01:25:21.761Z,1001.58
2023-03-22T01:26:21.734Z,1001.57
2023-03-22T01:27:21.731Z,1001.55
2023-03-22T01:28:21.712Z,1001.56
2023-03-22T01:29:21.712Z,1001.55
2023-03-22T01:30:21.699Z,1001.52
2023-03-22T01:31:21.759Z,1001.48
2023-03-22T01:32:21.650Z,1001.47
2023-03-22T01:33:21.666Z,1001.46
2023-03-22T01:34:21.634Z,1001.49
2023-03-22T01:35:21.669Z,1001.48
2023-03-22T01:36:21.607Z,1001.46
2023-03-22T01:37:21.626Z,1001.44
2023-03-22T01:38:21.608Z,1001.44
2023-03-22T01:39:21.607Z,1001.48
2023-03-22T01:40:21.583Z,1001.47
2023-03-22T01:41:21.570Z,1001.48
2023-03-22T01:42:21.552Z,1001.47
2023-03-22T01:43:21.578Z,1001.47
2023-03-22T01:44:21.556Z,1001.46
2023-03-22T01:45:21.530Z,1001.46
2023-03-22T01:46:21.517Z,1001.47
2023-03-22T01:47:21.521Z,1001.48
2023-03-22T01:48:21.502Z,1001.46
2023-03-22T01:49:21.604Z,1001.45
2023-03-22T01:50:21.481Z,1001.43
2023-03-22T01:51:21.475Z,1001.46
2023-03-22T01:52:21.439Z,1001.45
2023-03-22T01:53:21.451Z,1001.41
2023-03-22T01:54:21.423Z,1001.42
2023-03-22T01:55:21.451Z,1001.42
2023-03-22T01:56:21.400Z,1001.39
2023-03-22T01:57:21.408Z,1001.39
2023-03-22T01:58:21.379Z,1001.36
2023-03-22T01:59:21.419Z,1001.34
2023-03-22T02:00:21.374Z,1001.33
2023-03-22T02:01:21.405Z,1001.33
2023-03-22T02:02:21.378Z,1001.31
2023-03-22T02:03:21.344Z,1001.28
2023-03-22T02:04:21.371Z,1001.27
2023-03-22T02:05:21.330Z,1001.26
2023-03-22T02:06:21.329Z,1001.24
2023-03-22T02:07:21.295Z,1001.23
2023-03-22T02:08:21.268Z,1001.20
2023-03-22T02:09:21.289Z,1001.18
2023-03-22T02:10:21.261Z,1001.15
2023-03-22T02:11:21.264Z,1001.13
2023-03-22T02:12:21.227Z,1001.12
2023-03-22T02:13:21.238Z,1001.11
2023-03-22T02:14:22.027Z,1001.10
2023-03-22T02:15:21.229Z,1001.08
2023-03-22T02:16:21.268Z,1001.07
2023-03-22T02:17:21.221Z,1001.05
2023-03-22T02:18:21.177Z,1001.03
2023-03-22T02:19:21.178Z,1001.03
2023-03-22T02:20:21.177Z,1001.02
2023-03-22T02:21:21.173Z,1001.02
2023-03-22T02:22:21.130Z,1001.01
2023-03-22T02:23:21.146Z,1001.01
2023-03-22T02:24:21.099Z,1001.00
2023-03-22T02:25:21.149Z,1001.00
2023-03-22T02:26:21.144Z,1001.02
2023-03-22T02:27:21.088Z,1001.02
2023-03-22T02:28:21.050Z,1001.03
2023-03-22T02:29:21.056Z,1001.03
2023-03-22T07:01:33.550Z,1000.75
2023-03-22T07:02:34.409Z,1000.76
2023-03-22T07:03:34.402Z,1000.77
2023-03-22T07:04:34.439Z,1000.77
2023-03-22T07:05:34.373Z,1000.77
2023-03-22T07:06:34.370Z,1000.75
2023-03-22T07:07:34.343Z,1000.75
2023-03-22T07:08:34.365Z,1000.71
2023-03-22T07:09:34.356Z,1000.74
2023-03-22T07:10:34.344Z,1000.73
2023-03-22T07:11:34.297Z,1000.75
2023-03-22T07:12:34.292Z,1000.76
2023-03-22T07:13:34.283Z,1000.75
2023-03-22T07:14:34.269Z,1000.74
2023-03-22T07:15:34.355Z,1000.73
2023-03-22T07:16:34.278Z,1000.73
2023-03-22T07:17:34.217Z,1000.75
2023-03-22T07:18:34.236Z,1000.71
2023-03-22T07:19:34.213Z,1000.73
2023-03-22T07:20:34.217Z,1000.70
2023-03-22T07:21:34.186Z,1000.73
2023-03-22T07:22:34.219Z,1000.74
2023-03-22T07:23:34.184Z,1000.73
2023-03-22T07:24:34.172Z,1000.71
2023-03-22T07:25:34.159Z,1000.74
2023-03-22T07:26:34.161Z,1000.71
2023-03-22T07:27:34.126Z,1000.72
2023-03-22T07:28:34.142Z,1000.69
2023-03-22T07:29:34.101Z,1000.65
2023-03-22T07:30:34.109Z,1000.63
2023-03-22T07:31:34.088Z,1000.61
2023-03-22T07:32:34.112Z,1000.61
2023-03-22T07:33:34.080Z,1000.62
2023-03-22T07:34:34.063Z,1000.60
2023-03-22T07:35:34.044Z,1000.61
2023-03-22T07:36:34.036Z,1000.56
2023-03-22T07:37:34.035Z,1000.59
2023-03-22T07:38:34.157Z,1000.57
2023-03-22T07:39:34.020Z,1000.54
2023-03-22T07:40:34.024Z,1000.53
2023-03-22T07:41:33.975Z,1000.53
2023-03-22T07:42:33.977Z,1000.57
2023-03-22T07:43:44.080Z,1000.56
2023-03-22T07:44:33.963Z,1000.54
2023-03-22T07:45:33.972Z,1000.56
2023-03-22T07:46:33.992Z,1000.55
2023-03-22T07:47:40.788Z,1000.59
2023-03-22T07:48:33.964Z,1000.55
2023-03-22T07:49:33.896Z,1000.53
2023-03-22T07:50:33.937Z,1000.54
2023-03-22T07:51:33.916Z,1000.55
2023-03-22T07:52:33.862Z,1000.54
2023-03-22T07:53:33.883Z,1000.51
2023-03-22T07:54:34.648Z,1000.47
2023-03-22T07:55:33.827Z,1000.49
2023-03-22T07:56:33.853Z,1000.43
2023-03-22T07:57:33.807Z,1000.44
2023-03-22T07:58:33.812Z,1000.44
2023-03-22T07:59:33.786Z,1000.42
2023-03-22T08:00:33.791Z,1000.39
2023-03-22T08:01:33.847Z,1000.37
2023-03-22T08:02:33.784Z,1000.37
2023-03-22T08:03:33.746Z,1000.37
2023-03-22T08:04:33.756Z,1000.39
2023-03-22T08:05:33.717Z,1000.39
2023-03-22T08:06:33.735Z,1000.40
2023-03-22T08:07:33.693Z,1000.40
2023-03-22T08:08:33.703Z,1000.46
2023-03-22T08:09:33.697Z,1000.40
2023-03-22T08:10:33.681Z,1000.41
2023-03-22T08:11:33.657Z,1000.44
2023-03-22T08:12:33.669Z,1000.45
2023-03-22T08:13:33.627Z,1000.47
2023-03-22T08:14:36.813Z,1000.43
2023-03-22T08:15:33.630Z,1000.41
2023-03-22T08:16:33.893Z,1000.43
2023-03-22T08:17:33.622Z,1000.45
2023-03-22T08:18:33.597Z,1000.42
2023-03-22T08:19:33.561Z,1000.37
2023-03-22T08:20:33.583Z,1000.38
2023-03-22T08:21:33.581Z,1000.39
2023-03-22T08:22:33.565Z,1000.39
2023-03-22T08:23:41.312Z,1000.44
2023-03-22T08:24:33.539Z,1000.46
2023-03-22T08:25:33.548Z,1000.49
2023-03-22T08:26:33.519Z,1000.49
2023-03-22T08:27:33.488Z,1000.49
2023-03-22T08:28:33.476Z,1000.50
2023-03-22T08:29:33.466Z,1000.52
2023-03-22T08:30:33.498Z,1000.47
2023-03-22T08:31:33.473Z,1000.48
2023-03-22T08:32:33.455Z,1000.44
2023-03-22T08:33:33.426Z,1000.46
2023-03-22T08:34:33.449Z,1000.43
2023-03-22T08:35:33.413Z,1000.43
2023-03-22T08:36:33.516Z,1000.44
2023-03-22T08:37:33.368Z,1000.40
2023-03-22T08:38:33.374Z,1000.42
2023-03-22T08:39:33.376Z,1000.42
2023-03-22T08:40:33.393Z,1000.41
2023-03-22T08:41:33.331Z,1000.39
2023-03-22T08:42:33.377Z,1000.39
2023-03-22T08:43:33.309Z,1000.38
2023-03-22T08:44:33.306Z,1000.38
2023-03-22T08:45:33.310Z,1000.32
2023-03-22T08:46:33.351Z,1000.34
2023-03-22T08:47:33.275Z,1000.33
2023-03-22T08:48:33.292Z,1000.30
2023-03-22T08:49:33.235Z,1000.28
2023-03-22T08:50:33.251Z,1000.22
2023-03-22T08:51:33.216Z,1000.23
2023-03-22T08:52:33.243Z,1000.20
2023-03-22T08:53:33.215Z,1000.28
2023-03-22T08:54:33.418Z,1000.30
2023-03-22T08:55:33.182Z,1000.22
2023-03-22T08:56:33.182Z,1000.18
2023-03-22T08:57:33.153Z,1000.20
2023-03-22T08:58:33.171Z,1000.18
2023-03-22T08:59:33.132Z,1000.16
2023-03-22T09:00:47.454Z,1000.19
2023-03-22T09:01:33.259Z,1000.31
2023-03-22T09:02:33.136Z,1000.18
2023-03-22T09:03:33.143Z,1000.15
2023-03-22T09:04:33.140Z,1000.18
2023-03-22T09:05:33.070Z,1000.23
2023-03-22T09:06:33.069Z,1000.23
2023-03-22T09:07:33.042Z,1000.20
2023-03-22T09:08:33.041Z,1000.20
2023-03-22T09:09:33.047Z,1000.22
2023-03-22T09:10:33.044Z,1000.14
2023-03-22T09:11:32.998Z,1000.12
2023-03-22T09:12:33.048Z,1000.08
2023-03-22T09:13:32.977Z,1000.09
2023-03-22T09:14:33.001Z,1000.07
2023-03-22T09:15:32.959Z,1000.13
2023-03-22T09:16:33.030Z,1000.10
2023-03-22T09:17:32.939Z,1000.18
2023-03-22T09:18:32.949Z,1000.12
2023-03-22T09:19:32.915Z,1000.08
2023-03-22T09:20:32.938Z,1000.13
2023-03-22T09:21:32.881Z,1000.15
2023-03-22T09:22:32.898Z,1000.14
2023-03-22T09:23:32.872Z,1000.24
2023-03-22T09:24:32.885Z,1000.11
2023-03-22T09:25:32.842Z,1000.06
2023-03-22T09:26:32.848Z,1000.01
2023-03-22T09:27:32.825Z,1000.08
2023-03-22T09:28:32.894Z,1000.09
2023-03-22T09:29:32.808Z,1000.06
2023-03-22T09:30:32.808Z,1000.02
2023-03-22T09:31:32.843Z,1000.04
2023-03-22T09:32:33.578Z,1000.04
2023-03-22T09:33:32.763Z,999.99
2023-03-22T09:34:32.742Z,999.96
2023-03-22T09:35:32.772Z,999.96
2023-03-22T09:36:32.741Z,999.93
2023-03-22T09:37:32.724Z,999.96
2023-03-22T09:38:32.725Z,999.93
2023-03-22T09:39:32.704Z,1000.00
2023-03-22T09:40:32.675Z,999.87
2023-03-22T09:41:32.708Z,999.94
2023-03-22T09:42:32.649Z,999.79
2023-03-22T09:43:33.220Z,999.78
2023-03-22T09:44:32.628Z,999.78
2023-03-22T09:45:32.659Z,999.73
2023-03-22T09:46:32.695Z,999.71
2023-03-22T09:47:43.867Z,999.70
2023-03-22T09:48:32.680Z,999.69
2023-03-22T09:49:43.656Z,999.73
2023-03-22T09:50:32.581Z,999.67
2023-03-22T09:51:32.581Z,999.72
2023-03-22T09:52:32.607Z,999.62
2023-03-22T09:53:32.551Z,999.64
2023-03-22T09:54:32.531Z,999.65
2023-03-22T09:55:32.544Z,999.69
2023-03-22T09:56:32.526Z,999.58
2023-03-22T09:57:32.537Z,999.58
2023-03-22T09:58:32.544Z,999.56
2023-03-22T09:59:32.490Z,999.60
2023-03-22T10:00:32.627Z,999.56
2023-03-22T10:01:32.640Z,999.54
2023-03-22T10:02:32.479Z,999.53
2023-03-22T10:03:32.475Z,999.50
2023-03-22T10:04:32.569Z,999.51
2023-03-22T10:05:32.471Z,999.47
2023-03-22T10:06:32.416Z,999.47
2023-03-22T10:07:32.398Z,999.47
2023-03-22T10:08:32.388Z,999.51
2023-03-22T10:09:32.387Z,999.43
2023-03-22T10:10:32.380Z,999.47
2023-03-22T10:11:32.354Z,999.42
2023-03-22T10:12:32.345Z,999.44
2023-03-22T10:13:32.323Z,999.50
2023-03-22T10:14:32.317Z,999.49
2023-03-22T10:15:32.314Z,999.40
2023-03-22T10:16:32.343Z,999.47
2023-03-22T10:17:32.337Z,999.44
2023-03-22T10:18:32.288Z,999.46
2023-03-22T10:19:32.267Z,999.47
2023-03-22T10:20:32.237Z,999.51
2023-03-22T10:21:32.240Z,999.47
2023-03-22T10:22:32.221Z,999.50
2023-03-22T10:23:32.292Z,999.42
2023-03-22T10:24:32.200Z,999.59
2023-03-22T10:25:32.201Z,999.41
2023-03-22T10:26:32.192Z,999.42
2023-03-22T10:27:32.176Z,999.52
2023-03-22T10:28:32.158Z,999.46
2023-03-22T10:29:32.195Z,999.54
2023-03-22T10:30:32.165Z,999.51
2023-03-22T10:31:32.260Z,999.43
2023-03-22T10:32:32.128Z,999.44
2023-03-22T10:33:32.127Z,999.47
2023-03-22T10:34:32.080Z,999.43
2023-03-22T10:35:32.222Z,999.45
2023-03-22T10:36:32.071Z,999.40
2023-03-22T10:37:32.098Z,999.44
2023-03-22T10:38:32.067Z,999.41
2023-03-22T10:39:32.050Z,999.43
2023-03-22T10:40:32.034Z,999.41
2023-03-22T10:41:32.040Z,999.43
2023-03-22T10:42:32.010Z,999.43
2023-03-22T10:43:32.132Z,999.42
2023-03-22T10:44:31.994Z,999.55
2023-03-22T10:45:31.995Z,999.50
2023-03-22T10:46:32.009Z,999.46
2023-03-22T10:47:31.966Z,999.47
2023-03-22T10:48:31.992Z,999.42
2023-03-22T10:49:31.956Z,999.40
2023-03-22T10:50:31.932Z,999.35
2023-03-22T10:51:31.950Z,999.52
2023-03-22T10:52:31.898Z,999.46
2023-03-22T10:53:31.989Z,999.45
2023-03-22T10:54:31.870Z,999.41
2023-03-22T10:55:31.899Z,999.43
2023-03-22T10:56:31.862Z,999.39
2023-03-22T10:57:31.868Z,999.36
2023-03-22T10:58:31.845Z,999.33
2023-03-22T10:59:31.842Z,999.40
2023-03-22T11:00:31.871Z,999.35
2023-03-22T11:01:32.065Z,999.32
2023-03-22T11:02:31.972Z,999.37
2023-03-22T11:03:31.917Z,999.34
2023-03-22T11:04:31.777Z,999.38
2023-03-22T11:05:31.779Z,999.41
2023-03-22T11:06:31.763Z,999.36
2023-03-22T11:07:31.788Z,999.43
2023-03-22T11:08:31.750Z,999.35
2023-03-22T11:09:31.737Z,999.44
2023-03-22T11:10:31.746Z,999.46
2023-03-22T11:11:31.756Z,999.32
2023-03-22T11:12:31.680Z,999.29
2023-03-22T11:13:31.682Z,999.28
2023-03-22T11:14:31.664Z,999.22
2023-03-22T11:15:31.662Z,999.24
2023-03-22T11:16:31.693Z,999.24
2023-03-22T11:17:31.645Z,999.22
2023-03-22T11:18:31.606Z,999.19
2023-03-22T11:19:31.637Z,999.22
2023-03-22T11:20:31.677Z,999.23
2023-03-22T11:21:31.626Z,999.16
2023-03-22T11:22:31.613Z,999.18
2023-03-22T11:23:31.622Z,999.12
2023-03-22T11:24:31.552Z,999.07
2023-03-22T11:25:31.569Z,999.06
2023-03-22T11:26:31.543Z,999.08
2023-03-22T11:27:31.523Z,999.05
2023-03-22T11:28:31.503Z,999.01
2023-03-22T11:29:31.518Z,999.02
2023-03-22T11:30:31.493Z,999.05
2023-03-22T11:31:31.498Z,999.04
2023-03-22T11:32:31.534Z,999.03
2023-03-22T11:33:31.460Z,999.04
2023-03-22T11:34:31.476Z,999.14
2023-03-22T11:35:31.618Z,999.10
2023-03-22T11:36:31.450Z,999.12
2023-03-22T11:37:31.436Z,999.18
2023-03-22T11:38:31.398Z,998.96
2023-03-22T11:39:31.414Z,999.01
2023-03-22T11:40:31.382Z,999.02
2023-03-22T11:41:31.388Z,998.94
2023-03-22T11:42:31.354Z,999.05
2023-03-22T11:43:31.385Z,998.98
2023-03-22T11:44:31.330Z,998.96
2023-03-22T11:45:31.350Z,998.99
2023-03-22T11:46:32.211Z,998.95
2023-03-22T11:47:31.338Z,998.91
2023-03-22T11:48:31.396Z,998.86
2023-03-22T11:49:31.302Z,998.88
2023-03-22T11:50:31.259Z,998.93
2023-03-22T11:51:31.281Z,998.86
2023-03-22T11:52:31.254Z,998.84
2023-03-22T11:53:31.259Z,998.82
2023-03-22T11:54:31.231Z,998.85
2023-03-22T11:55:31.240Z,998.82
2023-03-22T11:56:31.243Z,998.82
2023-03-22T11:57:31.207Z,998.82
2023-03-22T11:58:31.203Z,998.84
2023-03-22T11:59:31.196Z,998.82
2023-03-22T12:00:31.168Z,998.88
2023-03-22T12:01:31.185Z,998.79
2023-03-22T12:02:31.342Z,998.76
2023-03-22T12:03:31.432Z,998.81
2023-03-22T12:04:31.179Z,998.77
2023-03-22T12:05:31.127Z,998.73
2023-03-22T12:06:31.158Z,998.83
2023-03-22T12:07:31.117Z,998.78
2023-03-22T12:08:31.096Z,998.72
2023-03-22T12:09:31.095Z,998.78
2023-03-22T12:10:31.062Z,999.01
2023-03-22T12:11:31.053Z,998.74
2023-03-22T12:12:31.026Z,998.69
2023-03-22T12:13:31.043Z,998.67
2023-03-22T12:14:31.028Z,998.68
2023-03-22T12:15:31.098Z,998.64
2023-03-22T12:16:31.055Z,998.61
2023-03-22T12:17:30.986Z,998.62
2023-03-22T12:18:30.958Z,998.67
2023-03-22T12:19:30.996Z,998.72
2023-03-22T12:20:30.961Z,998.70
2023-03-22T12:21:30.937Z,998.65
2023-03-22T12:22:30.927Z,998.75
2023-03-22T12:23:30.935Z,998.71
2023-03-22T12:24:30.904Z,998.61
2023-03-22T12:25:30.922Z,998.70
2023-03-22T12:26:30.876Z,998.67
2023-03-22T12:27:30.886Z,998.69
2023-03-22T12:28:30.864Z,998.70
2023-03-22T12:29:30.891Z,998.64
2023-03-22T12:30:30.847Z,998.58
2023-03-22T12:31:30.894Z,998.57
2023-03-22T12:32:30.907Z,998.62
2023-03-22T12:33:30.809Z,998.68
2023-03-22T12:34:30.782Z,998.65
2023-03-22T12:35:30.814Z,998.62
2023-03-22T12:36:30.811Z,998.56
2023-03-22T12:37:31.482Z,998.58
2023-03-22T12:38:30.748Z,998.51
2023-03-22T12:39:30.750Z,998.54
2023-03-22T12:40:30.730Z,998.56
2023-03-22T12:41:30.729Z,998.55
2023-03-22T12:42:32.610Z,998.49
2023-03-22T12:43:30.905Z,998.45
2023-03-22T12:44:30.685Z,998.45
2023-03-22T12:45:30.678Z,998.51
2023-03-22T12:46:30.672Z,998.47
2023-03-22T12:47:30.716Z,998.45
2023-03-22T12:48:30.725Z,998.46
2023-03-22T12:49:30.654Z,998.49
2023-03-22T12:50:30.620Z,998.50
2023-03-22T12:51:30.614Z,998.48
2023-03-22T12:52:34.861Z,998.39
2023-03-22T12:53:30.691Z,998.36
2023-03-22T12:54:30.587Z,998.37
2023-03-22T12:55:30.574Z,998.33
2023-03-22T12:56:30.555Z,998.45
2023-03-22T12:57:30.563Z,998.39
2023-03-22T12:58:30.570Z,998.33
2023-03-22T12:59:30.556Z,998.36
2023-03-22T13:00:30.552Z,998.27
2023-03-22T13:01:30.623Z,998.32
2023-03-22T13:02:30.671Z,998.25
2023-03-22T13:03:30.680Z,998.38
2023-03-22T13:04:30.478Z,998.28
2023-03-22T13:05:30.481Z,998.40
2023-03-22T13:06:30.459Z,998.22
2023-03-22T13:07:30.466Z,998.24
2023-03-22T13:08:32.189Z,998.22
2023-03-22T13:09:30.463Z,998.19
2023-03-22T13:10:30.393Z,998.16
2023-03-22T13:11:30.425Z,998.36
2023-03-22T13:12:30.443Z,998.17
2023-03-22T13:13:30.397Z,998.15
2023-03-22T13:14:30.355Z,998.10
2023-03-22T13:15:40.462Z,998.14
2023-03-22T13:16:30.356Z,998.23
2023-03-22T13:17:30.405Z,998.17
2023-03-22T13:18:33.077Z,998.17
2023-03-22T13:19:30.327Z,998.12
2023-03-22T13:20:30.294Z,998.15
2023-03-22T13:21:30.317Z,998.12
2023-03-22T13:22:30.284Z,998.12
2023-03-22T13:23:30.317Z,998.06
2023-03-22T13:24:32.111Z,998.15
2023-03-22T13:25:30.240Z,998.06
2023-03-22T13:26:30.235Z,998.17
2023-03-22T13:27:30.236Z,998.10
2023-03-22T13:28:30.214Z,998.04
2023-03-22T13:29:30.223Z,998.02
2023-03-22T13:30:32.461Z,998.00
2023-03-22T13:31:30.216Z,998.02
2023-03-22T13:32:30.260Z,997.98
2023-03-22T13:33:30.202Z,998.02
2023-03-22T13:34:30.134Z,998.01
2023-03-22T13:35:30.249Z,998.06
2023-03-22T13:36:30.160Z,997.93
2023-03-22T13:37:30.106Z,998.01
2023-03-22T13:38:30.190Z,998.10
2023-03-22T13:39:30.101Z,997.98
2023-03-22T13:40:30.107Z,997.89
2023-03-22T13:41:30.086Z,997.85
2023-03-22T13:42:30.050Z,997.80
2023-03-22T13:43:30.159Z,997.86
2023-03-22T13:44:30.038Z,997.91
2023-03-22T13:45:30.046Z,997.88
2023-03-22T13:46:30.040Z,998.02
2023-03-22T13:47:30.024Z,998.08
2023-03-22T13:48:30.186Z,997.87
2023-03-22T13:49:30.014Z,997.85
2023-03-22T13:50:29.967Z,998.04
2023-03-22T13:51:29.947Z,997.83
2023-03-22T13:52:29.942Z,997.83
2023-03-22T13:53:29.963Z,997.98
2023-03-22T13:54:29.982Z,997.85
2023-03-22T13:55:29.905Z,997.83
2023-03-22T13:56:29.909Z,997.89
2023-03-22T13:57:29.882Z,997.99
2023-03-22T13:58:29.883Z,997.86
2023-03-22T13:59:30.022Z,997.79
2023-03-22T14:00:29.940Z,997.87
2023-03-22T14:01:29.978Z,997.79
2023-03-22T14:02:29.968Z,997.84
2023-03-22T14:03:29.977Z,997.89
2023-03-22T14:04:29.855Z,997.84
2023-03-22T14:05:29.808Z,997.82
2023-03-22T14:06:29.805Z,997.84
2023-03-22T14:07:29.772Z,997.84
2023-03-22T14:08:29.787Z,997.83
2023-03-22T14:09:29.754Z,997.80
2023-03-22T14:10:29.779Z,997.91
2023-03-22T14:11:29.763Z,997.81
2023-03-22T14:12:29.734Z,997.83
2023-03-22T14:13:29.716Z,997.85
2023-03-22T14:14:29.728Z,997.89
2023-03-22T14:15:29.707Z,997.96
2023-03-22T14:16:29.743Z,997.87
2023-03-22T14:17:29.715Z,997.84
2023-03-22T14:18:29.673Z,997.98
2023-03-22T14:19:29.647Z,997.93
2023-03-22T14:20:29.643Z,998.09
2023-03-22T14:21:29.726Z,997.91
2023-03-22T14:52:12.273Z,997.66
2023-03-22T14:53:13.214Z,997.70
2023-03-22T14:54:14.121Z,997.75
2023-03-22T14:55:13.197Z,997.73
2023-03-22T14:56:13.220Z,997.68
2023-03-22T14:57:13.211Z,997.76
2023-03-22T14:58:13.212Z,997.72
2023-03-22T14:59:13.209Z,997.66
2023-03-22T15:00:13.180Z,997.69
2023-03-22T15:01:13.220Z,997.61
2023-03-22T15:02:13.162Z,997.62
2023-03-22T15:03:14.136Z,997.59
2023-03-22T15:04:13.114Z,997.58
2023-03-22T15:05:13.218Z,997.60
2023-03-22T15:06:13.107Z,997.58
2023-03-22T15:07:13.111Z,997.63
2023-03-22T15:08:13.088Z,997.55
2023-03-22T15:09:13.091Z,997.58
2023-03-22T15:10:13.055Z,997.63
2023-03-22T15:11:13.340Z,997.55
2023-03-22T15:12:13.058Z,997.60
2023-03-22T15:13:13.046Z,997.53
2023-03-22T15:14:13.024Z,997.63
2023-03-22T15:15:13.026Z,997.59
2023-03-22T15:16:13.007Z,997.58
2023-03-22T15:17:12.984Z,997.56
2023-03-22T15:18:12.985Z,997.56
2023-03-22T15:19:12.972Z,997.56
2023-03-22T15:20:12.982Z,997.51
2023-03-22T15:21:13.029Z,997.55
2023-03-22T15:22:13.732Z,997.53
2023-03-22T15:23:13.015Z,997.56
2023-03-22T15:24:12.923Z,997.58
2023-03-22T15:25:12.926Z,997.56
2023-03-22T15:26:12.891Z,997.55
2023-03-22T15:27:12.931Z,997.55
2023-03-22T15:28:12.848Z,997.58
2023-03-22T15:29:12.866Z,997.54
2023-03-22T15:30:12.853Z,997.54
2023-03-22T15:31:12.866Z,997.55
2023-03-22T15:32:12.811Z,997.50
2023-03-22T15:33:12.828Z,997.54
2023-03-22T15:34:12.797Z,997.53
2023-03-22T15:35:12.793Z,997.55
2023-03-22T15:36:12.884Z,997.54
2023-03-22T15:37:12.775Z,997.55
2023-03-22T15:38:12.765Z,997.58
2023-03-22T15:39:12.775Z,997.55
2023-03-22T15:40:12.782Z,997.60
2023-03-22T15:41:12.726Z,997.58
2023-03-22T15:42:12.718Z,997.61
2023-03-22T15:43:12.723Z,997.62
2023-03-22T15:44:12.695Z,997.62
2023-03-22T15:45:12.720Z,997.60
2023-03-22T15:46:12.679Z,997.60
2023-03-22T15:47:12.658Z,997.63
2023-03-22T15:48:12.633Z,997.62
2023-03-22T15:49:12.770Z,997.61
2023-03-22T15:50:12.639Z,997.58
2023-03-22T15:51:12.640Z,997.59
2023-03-22T15:52:12.604Z,997.58
2023-03-22T15:53:12.648Z,997.59
2023-03-22T15:54:12.697Z,997.61
2023-03-22T15:55:12.591Z,997.61
2023-03-22T15:56:12.547Z,997.61
2023-03-22T15:57:12.573Z,997.62
2023-03-22T15:58:12.553Z,997.62
2023-03-22T15:59:12.539Z,997.62
2023-03-22T16:00:12.514Z,997.59
2023-03-22T16:01:12.606Z,997.60
2023-03-22T16:02:12.497Z,997.62
2023-03-22T16:03:12.577Z,997.60
2023-03-22T16:04:12.514Z,997.63
2023-03-22T16:05:12.486Z,997.62
2023-03-22T16:06:12.512Z,997.64
2023-03-22T16:07:12.450Z,997.58
2023-03-22T16:08:12.445Z,997.56
2023-03-22T16:09:12.423Z,997.58
2023-03-22T16:10:12.410Z,997.58
2023-03-22T16:11:12.417Z,997.59
2023-03-22T16:12:12.395Z,997.59
2023-03-22T16:13:12.397Z,997.60
2023-03-22T16:14:12.404Z,997.59
2023-03-22T16:15:12.358Z,997.57
2023-03-22T16:16:12.356Z,997.57
2023-03-22T16:17:12.344Z,997.55
2023-03-22T16:18:12.326Z,997.59
2023-03-22T16:19:12.344Z,997.58
2023-03-22T16:20:12.311Z,997.61
2023-03-22T16:21:12.348Z,997.65
2023-03-22T16:22:12.268Z,997.67
2023-03-22T16:23:12.276Z,997.71
2023-03-22T16:24:12.251Z,997.67
2023-03-22T16:25:12.305Z,997.69
2023-03-22T16:26:12.254Z,997.69
2023-03-22T16:27:12.232Z,997.66
2023-03-22T16:28:12.225Z,997.66
2023-03-22T16:29:12.220Z,997.65
2023-03-22T16:30:12.191Z,997.64
2023-03-22T16:31:12.277Z,997.58
2023-03-22T16:32:12.203Z,997.57
2023-03-22T16:33:12.182Z,997.53
2023-03-22T16:34:12.163Z,997.53
2023-03-22T16:35:12.151Z,997.50
2023-03-22T16:36:13.845Z,997.53
2023-03-22T16:37:12.162Z,997.57
2023-03-22T16:38:12.096Z,997.60
2023-03-22T16:39:12.121Z,997.60
2023-03-22T16:40:12.095Z,997.62
2023-03-22T16:41:12.092Z,997.62
2023-03-22T16:42:12.052Z,997.62
2023-03-22T16:43:12.080Z,997.63
2023-03-22T16:44:12.044Z,997.62
2023-03-22T16:45:12.069Z,997.66
2023-03-22T16:46:12.058Z,997.65
2023-03-22T16:47:12.020Z,997.64
2023-03-22T16:48:12.003Z,997.61
2023-03-22T16:49:12.012Z,997.56
2023-03-22T16:50:11.976Z,997.57
2023-03-22T16:51:11.985Z,997.58
2023-03-22T16:52:11.953Z,997.59
2023-03-22T16:53:11.974Z,997.60
2023-03-22T16:54:11.950Z,997.59
2023-03-22T16:55:11.953Z,997.60
2023-03-22T16:56:11.907Z,997.59
2023-03-22T16:57:11.918Z,997.60
2023-03-22T16:58:11.906Z,997.60
2023-03-22T16:59:11.907Z,997.59
2023-03-22T17:00:11.879Z,997.59
2023-03-22T17:01:11.903Z,997.59
2023-03-22T17:02:11.846Z,997.62
2023-03-22T17:03:11.853Z,997.63
2023-03-22T17:04:11.828Z,997.59
2023-03-22T17:05:11.931Z,997.60
2023-03-22T17:06:11.843Z,997.60
2023-03-22T17:07:11.809Z,997.58
2023-03-22T17:08:11.788Z,997.58
2023-03-22T17:09:11.794Z,997.57
2023-03-22T17:10:11.777Z,997.59
2023-03-22T17:11:11.822Z,997.60
2023-03-22T17:12:11.761Z,997.59
2023-03-22T17:13:11.782Z,997.61
2023-03-22T17:14:11.716Z,997.61
2023-03-22T17:15:11.752Z,997.60
2023-03-22T17:16:11.809Z,997.64
2023-03-22T17:17:11.756Z,997.66
2023-03-22T17:18:11.678Z,997.65
2023-03-22T17:19:11.681Z,997.64
2023-03-22T17:20:11.717Z,997.64